»·PEaware :: N127CP KLAX-KSAN

N127CP :: KLAX-KSAN

FLIGHT INFORMATION

Flight Status: Arrived
Operator: Privately registered:
United States
More flights under this callsign
Pilot: Peter Y. (30276)
Aircraft: BEECH AIRCRAFT DEBONAIR BONANZA
(BE33)
More flights by this aircraft type
Origin: KLAX Los Angeles Intl
United States
Destination: KSAN San Diego Intl-Lindbergh
United States
More flights between these airports :: More routes between these airports
Route:
File this flight plan on PilotEdge
Remarks:
Altitude:
(Current/Filed)
7,500ft
Speed:
(Current/Filed)
150kts
Departed: 24-Jul-20 01:10 PM
Arrived: 24-Jul-20 01:51 PM
Distance/Time
Traveled:
95nm/0:41
Distance/Time
To Go:
Arrived

Flight Plot

Page will automatically refresh every two minutes.


Map Options




Map Legend


Flown Route
Filed Route
Departure Airport
Arrival Airport
Navaid (VOR, NDB)
Fix

Horizontal Profiles

Position Reports

Time Latitude Longitude Heading Altitude Ground
Speed
24-Jul-20 12:55 33.933208 -118.397456 264 109ft 0kts
24-Jul-20 12:56 33.933208 -118.397456 264 109ft 0kts
24-Jul-20 12:57 33.933208 -118.397456 264 109ft 0kts
24-Jul-20 12:58 33.933208 -118.397456 264 109ft 0kts
24-Jul-20 12:59 33.933208 -118.397456 264 109ft 0kts
24-Jul-20 13:00 33.933208 -118.397456 264 109ft 0kts
24-Jul-20 13:01 33.933208 -118.397456 264 109ft 0kts
24-Jul-20 13:02 33.933281 -118.397691 327 109ft 1kts
24-Jul-20 13:03 33.933281 -118.397691 327 109ft 0kts
24-Jul-20 13:04 33.933281 -118.397691 327 109ft 0kts
24-Jul-20 13:05 33.934766 -118.396152 83 105ft 16kts
24-Jul-20 13:06 33.935509 -118.388710 82 99ft 26kts
24-Jul-20 13:07 33.936314 -118.382834 21 95ft 0kts
24-Jul-20 13:08 33.936314 -118.382834 21 95ft 0kts
24-Jul-20 13:09 33.936632 -118.389713 263 99ft 92kts
24-Jul-20 13:10 33.932221 -118.426451 261 1081ft 122kts
24-Jul-20 13:11 33.906167 -118.437996 159 2111ft 128kts
24-Jul-20 13:12 33.869956 -118.420462 157 2731ft 145kts
24-Jul-20 13:13 33.835760 -118.399136 140 3480ft 151kts
24-Jul-20 13:14 33.800338 -118.364375 140 3473ft 169kts
24-Jul-20 13:15 33.767217 -118.331804 140 4221ft 148kts
24-Jul-20 13:16 33.735830 -118.300954 140 4941ft 140kts
24-Jul-20 13:17 33.708053 -118.268180 125 5478ft 150kts
24-Jul-20 13:18 33.681818 -118.224368 125 5473ft 166kts
24-Jul-20 13:19 33.654735 -118.179081 125 5472ft 167kts
24-Jul-20 13:20 33.626402 -118.134284 128 5472ft 167kts
24-Jul-20 13:21 33.597151 -118.090429 129 5472ft 168kts
24-Jul-20 13:22 33.567354 -118.047257 129 5472ft 168kts
24-Jul-20 13:23 33.539336 -118.008435 134 6151ft 142kts
24-Jul-20 13:24 33.512268 -117.975507 134 6853ft 136kts
24-Jul-20 13:25 33.485762 -117.943576 136 7465ft 139kts
24-Jul-20 13:26 33.453807 -117.909543 139 7474ft 162kts
24-Jul-20 13:27 33.418743 -117.873861 139 7480ft 166kts
24-Jul-20 13:28 33.383396 -117.838169 139 7481ft 167kts
24-Jul-20 13:29 33.347825 -117.802321 139 7481ft 167kts
24-Jul-20 13:30 33.312139 -117.766401 139 7481ft 167kts
24-Jul-20 13:31 33.276538 -117.730607 139 7481ft 167kts
24-Jul-20 13:32 33.241486 -117.695019 111 7486ft 166kts
24-Jul-20 13:33 33.224082 -117.643526 113 7481ft 167kts
24-Jul-20 13:34 33.204678 -117.592915 114 7481ft 167kts
24-Jul-20 13:35 33.185220 -117.542131 114 7329ft 175kts
24-Jul-20 13:36 33.163244 -117.487034 119 6640ft 187kts
24-Jul-20 13:37 33.132005 -117.439015 137 6134ft 184kts
24-Jul-20 13:38 33.091325 -117.402517 149 5632ft 183kts
24-Jul-20 13:39 33.047672 -117.374166 150 5461ft 172kts
24-Jul-20 13:40 33.005468 -117.348656 154 5463ft 168kts
24-Jul-20 13:41 32.962491 -117.324592 154 5275ft 176kts
24-Jul-20 13:42 32.915672 -117.297978 154 4374ft 191kts
24-Jul-20 13:43 32.867287 -117.270457 154 3499ft 191kts
24-Jul-20 13:44 32.824519 -117.246350 154 3446ft 131kts
24-Jul-20 13:45 32.797020 -117.230605 154 3155ft 112kts
24-Jul-20 13:46 32.770674 -117.214341 147 1784ft 113kts
24-Jul-20 13:47 32.747548 -117.190505 101 964ft 102kts
24-Jul-20 13:48 32.736099 -117.159050 188 635ft 114kts
24-Jul-20 13:49 32.732369 -117.184691 289 15ft 42kts
24-Jul-20 13:50 32.734232 -117.187977 21 17ft 15kts

Navigation Log

Ident Type
Flight plan parsing failed, navigation log unavailable